Time;durP1;ratioP1;P1;durP2;ratioP2;P2;SDS_P1;SDS_P2;PMS_P1;PMS_P2;Temp;Humidity;BMP_temperature;BMP_pressure;BME280_temperature;BME280_humidity;BME280_pressure;Samples;Min_cycle;Max_cycle;Signal;HPM_P1;HPM_P2
2023/12/30 00:01:45;;;;;;;2.70;2.00;;;;;;;12.69;53.51;97343.41;5068249;28;20571;-72
2023/12/30 00:04:10;;;;;;;4.33;2.20;;;;;;;12.75;53.61;97341.94;5062143;28;20217;-72
2023/12/30 00:06:36;;;;;;;2.27;2.07;;;;;;;12.80;53.58;97344.06;5076869;28;20435;-72
2023/12/30 00:09:01;;;;;;;2.33;2.13;;;;;;;12.81;53.18;97341.28;5063637;28;20199;-71
2023/12/30 00:11:27;;;;;;;2.73;2.20;;;;;;;12.83;53.29;97334.03;5077402;28;20209;-72
2023/12/30 00:13:52;;;;;;;2.20;2.00;;;;;;;12.86;53.30;97332.88;5075671;28;20646;-71
2023/12/30 00:16:18;;;;;;;2.33;2.13;;;;;;;12.86;53.16;97327.63;5075315;28;20218;-72
2023/12/30 00:18:43;;;;;;;2.73;1.90;;;;;;;12.85;53.38;97333.91;5077408;28;20273;-71
2023/12/30 00:21:08;;;;;;;2.20;2.00;;;;;;;12.94;53.27;97332.06;5056380;28;20183;-73
2023/12/30 00:23:35;;;;;;;4.73;2.13;;;;;;;12.97;53.19;97331.75;5063511;28;20568;-72
2023/12/30 00:26:01;;;;;;;3.20;2.10;;;;;;;13.03;53.00;97325.84;5064052;28;20189;-72
2023/12/30 00:28:26;;;;;;;3.17;2.00;;;;;;;13.06;52.98;97325.50;5073167;28;20420;-73
2023/12/30 00:30:52;;;;;;;4.13;2.10;;;;;;;12.85;53.63;97318.94;5076274;28;20182;-71
2023/12/30 00:33:17;;;;;;;2.70;2.20;;;;;;;12.96;53.25;97315.16;5079093;28;20270;-73
2023/12/30 00:35:43;;;;;;;2.03;1.83;;;;;;;13.04;52.87;97309.06;5071500;28;20229;-71
2023/12/30 00:38:08;;;;;;;2.23;2.03;;;;;;;13.10;52.88;97308.41;5062488;28;20186;-72
2023/12/30 00:40:33;;;;;;;2.50;2.30;;;;;;;12.90;53.30;97307.91;5069632;28;20239;-71
2023/12/30 00:42:59;;;;;;;2.13;1.93;;;;;;;13.01;52.87;97315.47;5060194;28;20742;-71
2023/12/30 00:45:25;;;;;;;2.50;2.30;;;;;;;12.99;52.96;97314.81;5054809;28;20285;-73
2023/12/30 00:47:50;;;;;;;2.23;1.80;;;;;;;12.94;53.01;97309.22;5066936;28;20209;-72
2023/12/30 00:50:16;;;;;;;2.80;1.87;;;;;;;13.08;53.02;97314.81;5076616;28;20648;-72
2023/12/30 00:52:41;;;;;;;2.53;2.27;;;;;;;12.99;53.12;97312.19;5062385;28;20182;-70
2023/12/30 00:55:07;;;;;;;2.47;2.27;;;;;;;12.99;53.28;97312.19;5060787;28;20233;-70
2023/12/30 00:57:33;;;;;;;3.43;2.77;;;;;;;13.06;53.59;97307.91;5070086;28;20178;-70
2023/12/30 00:59:58;;;;;;;2.80;2.10;;;;;;;13.06;53.60;97317.59;5067824;28;20688;-69
2023/12/30 01:02:24;;;;;;;2.03;1.80;;;;;;;13.02;53.31;97324.19;5066814;28;20182;-70
2023/12/30 01:04:49;;;;;;;2.50;2.30;;;;;;;13.12;53.07;97321.38;5075945;28;20189;-71
2023/12/30 01:07:14;;;;;;;3.23;2.33;;;;;;;13.13;52.96;97320.38;5077023;28;20181;-71
2023/12/30 01:09:40;;;;;;;4.07;2.20;;;;;;;13.10;53.03;97316.28;5053127;28;20186;-71
2023/12/30 01:12:06;;;;;;;2.67;2.30;;;;;;;13.09;53.00;97319.09;5068918;28;20177;-70
2023/12/30 01:14:31;;;;;;;3.80;2.10;;;;;;;13.14;52.95;97330.78;5063360;28;20209;-70
2023/12/30 01:16:57;;;;;;;2.27;2.03;;;;;;;13.14;53.52;97330.78;5058918;28;20286;-71
2023/12/30 01:19:24;;;;;;;2.73;2.53;;;;;;;13.08;53.50;97341.94;5061374;28;22016;-71
2023/12/30 01:21:49;;;;;;;3.60;2.10;;;;;;;13.11;53.31;97343.41;5076733;28;20188;-71
2023/12/30 01:24:15;;;;;;;4.40;2.37;;;;;;;13.21;53.38;97346.72;5076944;28;20444;-72
2023/12/30 01:26:41;;;;;;;3.27;2.30;;;;;;;13.20;53.23;97339.81;5072125;28;20185;-70
2023/12/30 01:29:06;;;;;;;2.03;1.87;;;;;;;13.15;53.21;97344.75;5071751;28;20932;-70
2023/12/30 01:31:32;;;;;;;4.80;1.83;;;;;;;13.25;53.34;97352.47;5069314;28;20265;-71
2023/12/30 01:33:57;;;;;;;2.43;2.20;;;;;;;13.35;53.45;97353.94;5052008;28;20202;-70
2023/12/30 01:36:22;;;;;;;3.60;2.10;;;;;;;13.35;53.29;97359.22;5077663;28;20691;-70
2023/12/30 01:38:48;;;;;;;4.90;2.33;;;;;;;13.32;52.98;97359.53;5074011;28;20613;-70
2023/12/30 01:41:13;;;;;;;2.80;2.17;;;;;;;13.36;52.90;97366.09;5074051;28;20189;-70
2023/12/30 01:43:39;;;;;;;3.37;2.33;;;;;;;13.45;53.16;97366.13;5071247;28;20263;-70
2023/12/30 01:46:08;;;;;;;2.30;1.93;;;;;;;13.47;53.30;97372.06;5067403;28;20207;-70
2023/12/30 01:48:33;;;;;;;2.10;1.90;;;;;;;13.45;53.20;97364.31;5074544;28;20178;-70
2023/12/30 01:51:00;;;;;;;2.37;1.80;;;;;;;13.48;53.41;97364.00;5091228;28;20420;-70
2023/12/30 01:53:26;;;;;;;2.70;2.20;;;;;;;13.51;53.56;97379.47;5088469;28;20864;-70
2023/12/30 01:55:52;;;;;;;3.00;2.33;;;;;;;13.50;53.42;97382.25;5048754;28;20452;-70
2023/12/30 01:58:18;;;;;;;3.90;2.57;;;;;;;13.52;54.05;97382.91;5048473;28;21017;-70
2023/12/30 02:00:47;;;;;;;2.10;1.90;;;;;;;13.45;53.94;97387.19;5059324;28;20412;-70
2023/12/30 02:03:12;;;;;;;2.70;2.37;;;;;;;13.46;54.35;97392.28;5076732;28;20413;-69
2023/12/30 02:05:38;;;;;;;2.60;1.93;;;;;;;13.47;54.34;97387.88;5074522;28;20494;-71
2023/12/30 02:08:04;;;;;;;2.80;2.37;;;;;;;13.47;55.01;97386.03;5055834;28;20218;-69
2023/12/30 02:10:29;;;;;;;2.47;2.27;;;;;;;13.46;54.90;97394.13;5062458;28;20831;-70
2023/12/30 02:12:55;;;;;;;2.10;1.90;;;;;;;13.41;55.44;97393.78;5070004;28;20265;-69
2023/12/30 02:15:21;;;;;;;2.50;2.30;;;;;;;13.39;55.54;97387.81;5077284;28;20332;-69
2023/12/30 02:17:51;;;;;;;2.67;2.20;;;;;;;13.37;55.72;97398.53;5074863;28;20512;-68
2023/12/30 02:20:18;;;;;;;2.47;2.27;;;;;;;13.29;55.55;97393.28;5073037;28;20481;-69
2023/12/30 02:22:47;;;;;;;3.23;2.20;;;;;;;13.25;56.27;97397.22;5070748;28;20436;-69
2023/12/30 02:25:13;;;;;;;2.37;2.17;;;;;;;13.28;55.89;97397.69;5080382;28;20444;-69
2023/12/30 02:27:41;;;;;;;2.97;2.23;;;;;;;13.11;56.45;97393.41;5086062;28;20424;-69
2023/12/30 02:30:07;;;;;;;3.20;2.00;;;;;;;13.08;56.18;97391.94;5072755;28;20417;-68
2023/12/30 02:32:32;;;;;;;3.13;2.10;;;;;;;13.08;56.70;97397.19;5076756;28;20421;-69
2023/12/30 02:34:57;;;;;;;7.40;2.80;;;;;;;13.04;56.41;97394.06;5078774;28;20292;-69
2023/12/30 02:37:23;;;;;;;2.57;2.30;;;;;;;13.04;56.15;97396.72;5086441;28;20882;-69
2023/12/30 02:39:48;;;;;;;2.47;2.10;;;;;;;13.05;56.35;97397.50;5080624;28;20613;-69
2023/12/30 02:42:14;;;;;;;2.17;1.97;;;;;;;13.12;56.14;97401.16;5077086;28;20179;-68
2023/12/30 02:44:39;;;;;;;3.00;2.20;;;;;;;13.08;56.11;97399.03;5076002;28;20209;-70
2023/12/30 02:47:05;;;;;;;3.97;2.37;;;;;;;13.11;56.12;97403.94;5063193;28;20184;-69
2023/12/30 02:49:32;;;;;;;2.37;2.17;;;;;;;13.14;55.97;97414.97;5084385;28;20265;-69
2023/12/30 02:51:57;;;;;;;3.07;2.10;;;;;;;13.13;56.04;97410.69;5075713;28;20182;-69
2023/12/30 02:54:23;;;;;;;2.60;2.40;;;;;;;13.12;55.60;97413.47;5051980;28;20472;-68
2023/12/30 02:56:48;;;;;;;2.33;2.13;;;;;;;12.99;55.73;97417.41;5088877;28;20289;-69
2023/12/30 02:59:14;;;;;;;2.27;2.07;;;;;;;12.95;56.30;97418.75;5074840;28;20183;-70
2023/12/30 03:01:39;;;;;;;4.80;2.40;;;;;;;12.95;56.14;97424.00;5073873;28;20185;-70
2023/12/30 03:04:04;;;;;;;2.80;2.20;;;;;;;12.93;56.27;97423.34;5072350;28;20202;-69
2023/12/30 03:06:30;;;;;;;4.60;2.50;;;;;;;12.90;56.53;97423.66;5070054;28;20286;-69
2023/12/30 03:08:55;;;;;;;3.13;2.20;;;;;;;12.75;56.96;97431.34;5082394;28;20181;-70
2023/12/30 03:11:22;;;;;;;2.97;2.13;;;;;;;12.77;56.98;97434.66;5053851;28;20190;-69
2023/12/30 03:13:48;;;;;;;2.60;2.40;;;;;;;12.69;56.90;97431.97;5065622;28;20210;-69
2023/12/30 03:16:14;;;;;;;3.27;2.40;;;;;;;12.75;56.79;97437.41;5048274;28;20880;-70
2023/12/30 03:18:43;;;;;;;4.93;2.67;;;;;;;12.73;56.87;97439.38;5080856;28;20182;-70
2023/12/30 03:21:09;;;;;;;2.47;2.27;;;;;;;12.81;56.75;97429.88;5084136;28;20257;-70
2023/12/30 03:23:36;;;;;;;4.00;2.53;;;;;;;12.91;57.01;97425.28;5074276;28;20503;-70
2023/12/30 03:26:02;;;;;;;3.67;2.80;;;;;;;12.83;57.08;97431.34;5085856;28;20936;-70
2023/12/30 03:28:28;;;;;;;2.57;2.40;;;;;;;12.73;57.72;97436.75;5073897;28;20421;-70
2023/12/30 03:30:53;;;;;;;4.00;2.80;;;;;;;12.62;57.50;97437.06;5066362;28;20552;-71
2023/12/30 03:33:18;;;;;;;4.80;3.00;;;;;;;12.61;57.96;97438.03;5075065;28;20190;-69
2023/12/30 03:35:44;;;;;;;4.20;2.27;;;;;;;12.65;58.40;97436.75;5073390;28;20305;-71
2023/12/30 03:38:09;;;;;;;4.33;2.20;;;;;;;12.68;57.89;97443.47;5076940;28;20182;-70
2023/12/30 03:40:35;;;;;;;3.40;1.90;;;;;;;12.68;57.80;97438.22;5080698;28;20655;-69
2023/12/30 03:43:01;;;;;;;4.30;2.20;;;;;;;12.66;57.91;97433.13;5070475;28;20178;-68
2023/12/30 03:45:26;;;;;;;4.10;2.10;;;;;;;12.74;57.46;97437.59;5077152;28;20206;-71
2023/12/30 03:47:54;;;;;;;1.97;1.77;;;;;;;12.71;57.65;97436.13;5056737;28;20200;-70
2023/12/30 03:50:20;;;;;;;2.63;2.07;;;;;;;12.69;57.68;97435.44;5067759;28;20190;-70
2023/12/30 03:52:46;;;;;;;5.53;2.40;;;;;;;12.69;57.29;97424.94;5065065;28;20430;-70
2023/12/30 03:55:11;;;;;;;8.37;2.43;;;;;;;12.69;57.70;97432.81;5060509;28;20484;-71
2023/12/30 03:57:37;;;;;;;6.47;2.23;;;;;;;12.69;57.32;97440.69;5069108;28;20237;-70
2023/12/30 04:00:03;;;;;;;3.10;2.17;;;;;;;12.74;57.39;97440.22;5064338;28;20553;-70
2023/12/30 04:02:28;;;;;;;6.00;1.87;;;;;;;12.63;57.11;97445.78;5070009;28;20270;-70
2023/12/30 04:04:54;;;;;;;3.10;1.80;;;;;;;12.55;57.44;97446.56;5071202;28;20270;-71
2023/12/30 04:07:19;;;;;;;2.90;1.80;;;;;;;12.62;57.79;97452.81;5078110;28;20194;-70
2023/12/30 04:09:45;;;;;;;4.57;1.93;;;;;;;12.57;57.67;97445.41;5083635;28;20558;-70
2023/12/30 04:12:10;;;;;;;2.40;2.20;;;;;;;12.54;58.08;97447.56;5074062;28;20178;-71
2023/12/30 04:14:36;;;;;;;2.10;1.40;;;;;;;12.60;58.04;97450.38;5078074;28;20746;-71
2023/12/30 04:17:01;;;;;;;1.93;1.73;;;;;;;12.65;58.37;97444.63;5077490;28;20189;-70
2023/12/30 04:19:27;;;;;;;4.20;2.13;;;;;;;12.58;58.44;97433.13;5054411;28;20266;-72
2023/12/30 04:21:52;;;;;;;3.80;1.70;;;;;;;12.56;58.42;97446.41;5082954;28;20272;-69
2023/12/30 04:24:18;;;;;;;1.60;1.50;;;;;;;12.54;58.93;97447.56;5058844;28;20197;-70
2023/12/30 04:26:44;;;;;;;3.20;1.50;;;;;;;12.62;58.78;97441.50;5079735;28;20272;-70
2023/12/30 04:29:10;;;;;;;2.50;1.60;;;;;;;12.61;58.49;97445.91;5065133;28;20508;-71
2023/12/30 04:31:36;;;;;;;2.73;1.73;;;;;;;12.67;58.39;97449.72;5057586;28;20763;-73
2023/12/30 04:34:02;;;;;;;4.23;1.83;;;;;;;12.70;58.41;97452.88;5075737;28;20209;-70
2023/12/30 04:36:27;;;;;;;1.93;1.73;;;;;;;12.74;58.37;97451.56;5044341;28;20209;-70
2023/12/30 04:38:53;;;;;;;4.10;1.90;;;;;;;12.78;58.38;97449.44;5055246;28;20957;-70
2023/12/30 04:41:18;;;;;;;2.50;1.63;;;;;;;12.66;58.32;97454.16;5079426;28;20181;-70
2023/12/30 04:43:44;;;;;;;2.23;1.50;;;;;;;12.70;58.30;97460.75;5075041;28;20240;-72
2023/12/30 04:46:11;;;;;;;2.50;1.40;;;;;;;12.52;58.52;97455.59;5058947;28;20211;-70
2023/12/30 04:48:37;;;;;;;5.03;1.53;;;;;;;12.63;58.32;97462.38;5041274;28;20240;-70
2023/12/30 04:51:03;;;;;;;3.03;1.57;;;;;;;12.64;58.34;97469.28;5057551;28;20445;-70
2023/12/30 04:53:28;;;;;;;2.00;1.23;;;;;;;12.60;58.27;97471.41;5066831;28;20412;-73
2023/12/30 04:55:54;;;;;;;1.80;1.40;;;;;;;12.53;58.92;97473.03;5055463;28;20343;-72
2023/12/30 04:58:19;;;;;;;3.10;1.17;;;;;;;12.56;58.34;97475.31;5062190;28;20185;-70
2023/12/30 05:00:44;;;;;;;1.43;1.27;;;;;;;12.43;58.92;97473.16;5050234;28;20306;-72
2023/12/30 05:03:10;;;;;;;1.73;1.40;;;;;;;12.44;58.96;97471.31;5074044;28;20204;-70
2023/12/30 05:05:36;;;;;;;2.90;1.77;;;;;;;12.49;59.03;97473.47;5076581;28;20674;-69
2023/12/30 05:08:01;;;;;;;1.60;1.40;;;;;;;12.51;59.13;97476.78;5071766;28;20630;-71
2023/12/30 05:10:27;;;;;;;2.80;1.40;;;;;;;12.44;59.47;97463.44;5071878;28;20189;-70
2023/12/30 05:12:52;;;;;;;1.90;1.20;;;;;;;12.52;59.07;97473.16;5070997;28;20722;-69
2023/12/30 05:15:18;;;;;;;2.53;1.30;;;;;;;12.42;59.25;97468.03;5055215;28;20309;-71
2023/12/30 05:17:43;;;;;;;2.00;1.30;;;;;;;12.35;59.60;97472.28;5071386;28;20213;-70
2023/12/30 05:20:10;;;;;;;2.30;1.27;;;;;;;12.46;59.68;97479.88;5069379;28;20646;-69
2023/12/30 05:22:36;;;;;;;2.30;1.40;;;;;;;12.55;59.30;97472.84;5068992;28;20183;-70
2023/12/30 05:25:01;;;;;;;1.30;1.00;;;;;;;12.54;59.24;97485.16;5066816;28;20445;-71
2023/12/30 05:27:26;;;;;;;2.33;1.43;;;;;;;12.53;59.25;97480.06;5072559;28;20179;-69
2023/12/30 05:29:52;;;;;;;1.40;1.30;;;;;;;12.57;59.31;97484.84;5066198;28;20178;-71
2023/12/30 05:32:17;;;;;;;3.83;1.43;;;;;;;12.55;59.65;97478.13;5059262;28;20192;-70
2023/12/30 05:34:43;;;;;;;2.80;1.30;;;;;;;12.53;59.34;97466.94;5055619;28;20293;-70
2023/12/30 05:37:10;;;;;;;1.80;1.43;;;;;;;12.46;59.76;97468.56;5069386;28;20729;-71
2023/12/30 05:39:36;;;;;;;1.83;1.40;;;;;;;12.48;59.67;97472.66;5063935;28;20432;-70
2023/12/30 05:42:02;;;;;;;2.37;1.30;;;;;;;12.43;59.79;97467.88;5069609;28;20514;-69
2023/12/30 05:44:30;;;;;;;4.50;1.07;;;;;;;12.58;59.67;97467.28;5062727;28;20226;-69
2023/12/30 05:46:56;;;;;;;1.83;1.00;;;;;;;12.55;59.57;97472.84;5054402;28;20457;-70
2023/12/30 05:49:22;;;;;;;3.83;1.40;;;;;;;12.53;59.60;97488.81;5070004;28;20432;-70
2023/12/30 05:51:47;;;;;;;3.67;1.10;;;;;;;12.59;59.37;97477.63;5056969;28;20187;-70
2023/12/30 05:54:13;;;;;;;4.47;1.20;;;;;;;12.52;59.39;97478.44;5063849;28;20807;-70
2023/12/30 05:56:38;;;;;;;1.83;1.10;;;;;;;12.50;60.05;97475.97;5057807;28;20283;-69
2023/12/30 05:59:04;;;;;;;2.27;1.10;;;;;;;12.50;59.81;97470.72;5072001;28;20260;-70
2023/12/30 06:01:29;;;;;;;1.40;1.00;;;;;;;12.42;59.76;97474.13;5063103;28;20190;-74
2023/12/30 06:03:54;;;;;;;1.90;1.10;;;;;;;12.53;59.77;97480.06;5053580;28;20202;-72
2023/12/30 06:06:20;;;;;;;1.30;1.00;;;;;;;12.46;59.86;97479.06;5066873;28;20182;-71
2023/12/30 06:08:46;;;;;;;1.60;1.10;;;;;;;12.49;60.16;97478.72;4988352;28;20185;-71
2023/12/30 06:11:12;;;;;;;5.27;1.50;;;;;;;12.44;60.31;97477.44;5068876;28;20794;-71
2023/12/30 06:13:40;;;;;;;1.90;1.10;;;;;;;12.51;60.23;97474.16;5075617;28;20428;-70
2023/12/30 06:16:08;;;;;;;1.43;1.33;;;;;;;12.51;60.65;97480.25;5081606;28;20516;-70
2023/12/30 06:18:34;;;;;;;1.53;1.23;;;;;;;12.39;60.81;97487.56;5073338;28;20428;-71
2023/12/30 06:20:59;;;;;;;1.20;1.10;;;;;;;12.47;60.63;97486.78;5075829;28;20430;-72
2023/12/30 06:23:28;;;;;;;2.00;1.20;;;;;;;12.56;60.83;97493.72;5088506;28;20430;-71
2023/12/30 06:25:54;;;;;;;2.80;1.40;;;;;;;12.53;60.91;97486.19;5089721;28;20324;-70
2023/12/30 06:28:20;;;;;;;3.73;1.30;;;;;;;12.57;60.71;97490.13;5089760;28;20448;-70
2023/12/30 06:30:46;;;;;;;2.53;1.40;;;;;;;12.46;61.23;97482.50;5080506;28;20420;-70
2023/12/30 06:33:12;;;;;;;1.50;1.07;;;;;;;12.51;60.95;97484.66;5063467;28;20203;-71
2023/12/30 06:35:38;;;;;;;1.73;1.10;;;;;;;12.56;60.80;97480.56;5060644;28;20454;-70
2023/12/30 06:38:03;;;;;;;2.40;1.00;;;;;;;12.48;60.83;97493.69;5045124;28;20423;-70
2023/12/30 06:40:29;;;;;;;2.00;1.20;;;;;;;12.53;61.22;97493.22;5085229;28;20193;-69
2023/12/30 06:42:54;;;;;;;1.80;1.50;;;;;;;12.52;60.97;97488.94;5080991;28;20175;-70
2023/12/30 06:45:19;;;;;;;1.20;0.90;;;;;;;12.52;61.03;97495.03;5068041;28;20206;-71
2023/12/30 06:47:45;;;;;;;1.97;1.00;;;;;;;12.55;60.89;97494.69;5082011;28;20240;-70
2023/12/30 06:50:15;;;;;;;2.80;1.30;;;;;;;12.56;60.66;97500.81;5069150;28;20216;-70
2023/12/30 06:52:41;;;;;;;2.60;1.40;;;;;;;12.54;60.83;97500.13;5045089;28;20601;-70
2023/12/30 06:55:07;;;;;;;1.77;1.10;;;;;;;12.56;60.78;97501.59;5077032;28;20880;-69
2023/12/30 06:57:33;;;;;;;1.50;1.40;;;;;;;12.55;60.91;97499.16;5078029;28;20417;-70
2023/12/30 06:59:58;;;;;;;3.53;1.70;;;;;;;12.52;60.80;97505.56;5072557;28;20522;-69
2023/12/30 07:02:24;;;;;;;2.83;1.80;;;;;;;12.53;61.32;97498.47;5056703;28;20276;-69
2023/12/30 07:04:49;;;;;;;6.73;2.07;;;;;;;12.56;60.90;97498.97;5073827;28;20190;-69
2023/12/30 07:07:14;;;;;;;4.13;1.53;;;;;;;12.49;60.79;97511.13;5078156;28;20274;-70
2023/12/30 07:09:40;;;;;;;3.37;1.93;;;;;;;12.47;60.97;97505.19;5080478;28;20621;-68
2023/12/30 07:12:07;;;;;;;4.60;1.70;;;;;;;12.48;61.18;97513.88;5061111;28;20886;-67
2023/12/30 07:14:37;;;;;;;2.83;1.90;;;;;;;12.35;61.61;97504.63;5053001;28;20228;-70
2023/12/30 07:17:03;;;;;;;1.50;1.40;;;;;;;12.28;61.67;97516.75;5062279;28;20427;-69
2023/12/30 07:19:28;;;;;;;4.80;2.10;;;;;;;12.28;61.84;97514.13;5071992;28;20416;-69
2023/12/30 07:21:54;;;;;;;3.80;2.00;;;;;;;12.36;61.79;97514.16;5075103;28;20430;-69
2023/12/30 07:24:19;;;;;;;4.07;1.50;;;;;;;12.40;61.37;97517.31;5078104;28;20210;-69
2023/12/30 07:26:44;;;;;;;2.77;1.43;;;;;;;12.33;61.69;97522.38;5075714;28;20194;-69
2023/12/30 07:29:11;;;;;;;4.17;2.13;;;;;;;12.41;61.45;97529.50;5065008;28;20274;-69
2023/12/30 07:31:36;;;;;;;2.90;1.80;;;;;;;12.41;61.65;97530.28;5073500;28;20202;-69
2023/12/30 07:34:04;;;;;;;2.13;1.77;;;;;;;12.50;61.47;97525.91;5063841;28;20534;-70
2023/12/30 07:36:30;;;;;;;2.97;1.97;;;;;;;12.51;61.41;97517.06;5070336;28;20219;-69
2023/12/30 07:38:56;;;;;;;3.17;2.20;;;;;;;12.55;61.30;97514.94;5065088;28;20529;-70
2023/12/30 07:41:21;;;;;;;3.03;2.50;;;;;;;12.46;61.51;97521.13;5069097;28;20955;-69
2023/12/30 07:43:48;;;;;;;5.13;1.90;;;;;;;12.45;61.72;97515.03;5065172;28;20263;-69
2023/12/30 07:46:14;;;;;;;2.30;1.87;;;;;;;12.40;61.78;97520.75;5071413;28;20265;-69
2023/12/30 07:48:39;;;;;;;3.13;1.90;;;;;;;12.49;61.54;97526.06;5073032;28;20904;-70
2023/12/30 07:51:05;;;;;;;7.60;1.83;;;;;;;12.60;61.00;97525.81;5067118;28;20906;-70
2023/12/30 07:53:30;;;;;;;3.50;2.10;;;;;;;12.63;61.01;97514.94;5075325;28;20209;-70
2023/12/30 07:55:56;;;;;;;2.10;1.90;;;;;;;12.56;60.77;97521.84;5066463;28;20306;-69
2023/12/30 07:58:25;;;;;;;2.30;1.70;;;;;;;12.58;60.84;97522.50;5068263;28;20197;-69
2023/12/30 08:00:53;;;;;;;2.77;2.20;;;;;;;12.52;61.21;97529.22;5062688;28;20294;-69
2023/12/30 08:03:19;;;;;;;3.87;1.80;;;;;;;12.54;61.22;97529.03;5057089;28;20523;-68
2023/12/30 08:05:44;;;;;;;2.30;1.90;;;;;;;12.61;60.86;97535.31;5059725;28;20297;-69
2023/12/30 08:08:12;;;;;;;3.83;2.10;;;;;;;12.66;60.86;97535.69;5081011;28;20197;-69
2023/12/30 08:10:37;;;;;;;7.10;2.30;;;;;;;12.74;60.61;97533.06;5071370;28;20217;-69
2023/12/30 08:13:26;;;;;;;2.80;1.60;;;;;;;12.73;60.69;97530.63;5077370;28;20449;-69
2023/12/30 08:15:51;;;;;;;1.77;1.67;;;;;;;12.78;60.80;97540.66;5074278;28;20222;-69
2023/12/30 08:18:17;;;;;;;1.50;1.20;;;;;;;12.78;60.44;97527.50;5050721;28;20957;-69
2023/12/30 08:20:42;;;;;;;2.40;1.57;;;;;;;12.94;60.33;97534.63;5074018;28;20183;-70
2023/12/30 08:23:08;;;;;;;2.80;1.53;;;;;;;13.05;60.19;97535.16;5073974;28;20190;-70
2023/12/30 08:25:33;;;;;;;3.83;1.40;;;;;;;13.05;60.20;97540.44;5076950;28;20216;-69
2023/12/30 08:27:59;;;;;;;1.77;1.40;;;;;;;13.11;59.86;97536.34;5067888;28;20313;-69
2023/12/30 08:30:24;;;;;;;1.60;1.30;;;;;;;13.13;59.80;97551.97;5070268;28;20190;-69
2023/12/30 08:32:50;;;;;;;1.87;1.40;;;;;;;13.29;59.47;97553.81;5067171;28;20226;-69
2023/12/30 08:35:15;;;;;;;2.93;2.00;;;;;;;13.35;59.47;97551.38;5066908;28;20313;-69
2023/12/30 08:37:40;;;;;;;4.10;1.90;;;;;;;13.49;59.46;97549.94;5067293;28;20290;-70
2023/12/30 08:40:09;;;;;;;1.93;1.40;;;;;;;13.50;59.23;97545.47;5074167;28;20753;-69
2023/12/30 08:42:35;;;;;;;2.60;1.30;;;;;;;13.56;58.60;97542.22;5072804;28;20654;-72
2023/12/30 08:45:02;;;;;;;2.13;1.90;;;;;;;13.59;58.60;97534.00;5067590;28;20464;-71
2023/12/30 08:47:32;;;;;;;2.70;2.10;;;;;;;13.60;58.46;97546.19;5069447;28;20842;-70
2023/12/30 08:49:57;;;;;;;8.73;1.90;;;;;;;13.49;58.53;97543.84;5062312;28;20421;-71
2023/12/30 08:52:23;;;;;;;2.17;1.83;;;;;;;13.54;58.56;97546.00;5065925;28;20502;-69
2023/12/30 08:54:48;;;;;;;2.83;1.77;;;;;;;13.37;58.36;97549.38;5081814;28;20210;-70
2023/12/30 08:57:14;;;;;;;1.60;1.50;;;;;;;13.32;58.10;97535.06;5067123;28;20190;-70
2023/12/30 08:59:40;;;;;;;1.90;1.70;;;;;;;13.28;58.31;97542.47;5060080;28;20183;-70
2023/12/30 09:02:05;;;;;;;6.00;1.53;;;;;;;13.28;58.55;97547.72;5058893;28;20190;-71
2023/12/30 09:04:31;;;;;;;1.30;1.20;;;;;;;13.23;58.48;97549.19;5073658;28;20414;-72
2023/12/30 09:06:56;;;;;;;3.27;2.33;;;;;;;13.32;58.00;97558.75;5059398;28;20178;-69
2023/12/30 09:09:22;;;;;;;5.47;2.60;;;;;;;13.36;57.76;97554.81;5059606;28;20285;-71
2023/12/30 09:11:47;;;;;;;3.20;1.60;;;;;;;13.40;57.58;97552.72;5037379;28;20816;-70
2023/12/30 09:14:13;;;;;;;3.43;2.73;;;;;;;13.48;57.77;97558.81;5063726;28;20708;-72
2023/12/30 09:16:38;;;;;;;2.60;2.00;;;;;;;13.47;56.93;97564.25;5074540;28;20235;-72
2023/12/30 09:19:04;;;;;;;2.30;1.63;;;;;;;13.44;56.09;97572.47;5048334;28;20437;-71
2023/12/30 09:21:29;;;;;;;4.27;2.87;;;;;;;13.46;56.39;97575.78;5078012;28;20220;-71
2023/12/30 09:23:55;;;;;;;4.43;3.57;;;;;;;13.52;56.37;97575.94;5074204;28;20241;-72
2023/12/30 09:26:20;;;;;;;4.50;2.30;;;;;;;13.54;56.32;97575.78;5051879;28;20276;-71
2023/12/30 09:28:46;;;;;;;1.97;1.30;;;;;;;13.47;55.68;97577.44;5066551;28;20178;-72
2023/12/30 09:31:11;;;;;;;3.60;2.23;;;;;;;13.53;55.32;97576.75;5074825;28;20187;-72
2023/12/30 09:33:37;;;;;;;2.17;1.50;;;;;;;13.52;55.02;97580.38;5078949;28;20186;-73
2023/12/30 09:36:02;;;;;;;5.43;1.97;;;;;;;14.16;54.55;97574.50;5065535;28;20314;-71
2023/12/30 09:38:28;;;;;;;3.43;2.60;;;;;;;14.81;53.46;97575.38;5076706;28;20181;-72
2023/12/30 09:40:54;;;;;;;4.20;2.53;;;;;;;15.24;51.19;97561.81;5076940;28;20328;-70
2023/12/30 09:43:25;;;;;;;3.30;1.57;;;;;;;15.12;49.13;97571.94;5070299;28;20213;-68
2023/12/30 09:45:51;;;;;;;3.10;1.20;;;;;;;15.40;48.87;97573.28;5080163;28;21385;-69
2023/12/30 09:48:19;;;;;;;1.93;1.30;;;;;;;15.46;48.39;97576.06;5071843;28;20432;-70
2023/12/30 09:50:46;;;;;;;4.03;1.43;;;;;;;15.21;49.27;97567.44;5076460;28;20443;-71
2023/12/30 09:53:12;;;;;;;2.17;1.37;;;;;;;15.62;47.60;97580.41;5051772;28;20535;-68
2023/12/30 09:55:37;;;;;;;2.40;1.30;;;;;;;15.52;48.00;97578.00;5066457;28;20940;-71
2023/12/30 09:58:05;;;;;;;1.90;0.97;;;;;;;15.48;47.37;97582.00;5069445;28;20198;-70
2023/12/30 10:00:31;;;;;;;1.77;1.20;;;;;;;15.22;47.22;97576.19;5070243;28;20178;-71
2023/12/30 10:02:56;;;;;;;3.80;1.53;;;;;;;15.26;47.59;97577.47;5073871;28;20429;-72
2023/12/30 10:05:22;;;;;;;1.47;1.10;;;;;;;15.24;47.51;97580.31;5046425;28;20199;-71
2023/12/30 10:07:48;;;;;;;1.57;0.97;;;;;;;15.13;47.51;97576.22;5071197;28;20214;-72
2023/12/30 10:10:13;;;;;;;2.47;1.20;;;;;;;15.11;47.87;97591.44;5071654;28;20190;-72
2023/12/30 10:12:38;;;;;;;2.30;1.20;;;;;;;14.98;47.84;97589.31;5056480;28;20643;-71
2023/12/30 10:15:04;;;;;;;2.13;1.20;;;;;;;14.90;47.96;97584.91;5073544;28;20212;-72
2023/12/30 10:17:30;;;;;;;1.60;1.23;;;;;;;14.78;48.01;97570.44;5057896;28;20222;-74
2023/12/30 10:19:56;;;;;;;1.73;1.00;;;;;;;14.78;46.98;97575.72;5079064;28;20507;-72
2023/12/30 10:22:21;;;;;;;5.30;2.00;;;;;;;14.80;47.32;97576.38;5078034;28;20187;-72
2023/12/30 10:24:47;;;;;;;2.53;1.10;;;;;;;14.87;46.90;97574.69;5057158;28;20443;-72
2023/12/30 10:27:13;;;;;;;2.90;1.40;;;;;;;14.87;46.54;97566.75;5053034;28;20302;-72
2023/12/30 10:29:38;;;;;;;1.43;1.00;;;;;;;14.88;46.01;97565.78;5063741;28;20594;-72
2023/12/30 10:32:08;;;;;;;1.70;0.90;;;;;;;14.84;45.79;97574.22;5071520;28;20190;-72
2023/12/30 10:34:35;;;;;;;2.90;1.30;;;;;;;14.85;45.70;97575.84;5066971;28;20194;-72
2023/12/30 10:37:01;;;;;;;1.63;1.00;;;;;;;14.82;45.50;97569.09;5068675;28;20428;-71
2023/12/30 10:39:27;;;;;;;2.60;0.93;;;;;;;14.95;45.40;97575.66;5049127;28;21018;-71
2023/12/30 10:41:52;;;;;;;2.47;1.00;;;;;;;15.18;45.28;97565.19;5051714;28;20175;-73
2023/12/30 10:44:17;;;;;;;1.83;1.00;;;;;;;15.61;44.85;97570.03;5072363;28;20202;-72
2023/12/30 10:46:47;;;;;;;1.63;1.03;;;;;;;15.95;43.69;97563.53;5071787;28;20213;-73
2023/12/30 10:49:15;;;;;;;1.97;1.20;;;;;;;16.38;42.98;97563.78;5077000;28;20189;-73
2023/12/30 10:51:40;;;;;;;2.57;1.17;;;;;;;16.80;42.03;97556.25;5044579;28;20521;-71
2023/12/30 10:54:07;;;;;;;4.30;1.00;;;;;;;17.27;41.48;97553.38;5052987;28;20453;-72
2023/12/30 10:56:44;;;;;;;1.97;1.00;;;;;;;17.68;39.76;97530.75;5076303;28;20209;-71
2023/12/30 10:59:12;;;;;;;3.23;1.50;;;;;;;18.00;39.46;97541.88;5062693;28;20425;-73
2023/12/30 11:01:38;;;;;;;1.20;0.93;;;;;;;18.07;38.44;97540.09;5052149;28;20441;-71
2023/12/30 11:04:11;;;;;;;1.93;0.80;;;;;;;18.49;38.45;97534.84;5047845;28;20455;-71
2023/12/30 11:06:52;;;;;;;2.50;0.70;;;;;;;18.74;37.15;97532.56;5049087;28;20783;-74
2023/12/30 11:09:22;;;;;;;2.27;0.80;;;;;;;18.97;36.51;97534.13;5047902;28;20425;-72
2023/12/30 11:11:52;;;;;;;4.63;0.93;;;;;;;19.22;36.16;97522.97;5068930;28;20799;-72
2023/12/30 11:14:17;;;;;;;2.43;0.93;;;;;;;19.62;36.11;97528.38;5058187;28;20456;-72
2023/12/30 11:16:43;;;;;;;1.50;0.80;;;;;;;19.65;34.94;97528.78;5050504;28;21156;-73
2023/12/30 11:19:09;;;;;;;1.30;0.73;;;;;;;19.93;34.96;97519.84;5069057;28;20191;-73
2023/12/30 11:21:40;;;;;;;1.93;0.90;;;;;;;20.18;34.56;97529.00;5039532;28;20815;-72
2023/12/30 11:24:08;;;;;;;3.20;1.00;;;;;;;20.29;34.18;97531.03;5073258;28;20199;-70
2023/12/30 11:26:36;;;;;;;1.97;1.00;;;;;;;20.16;34.21;97523.09;5064515;28;20487;-73
2023/12/30 11:29:02;;;;;;;1.23;0.80;;;;;;;20.43;33.67;97518.56;5060097;28;20425;-73